EVLA/LPX METAR and TAF weather

Enter ICAO airport designator
Station Type Date Time Source
EVLA METAR 2024/05/28 22:50 UTC NOAA

EVLA 282250Z AUTO 08004KT CAVOK 15/10 Q1014


Station Type Date Time Source
EVLA Decoded METAR 2024/05/28 22:50 UTC NOAA

Liepaja International Airport, Latvia (EVLA) 56-31N 021-05E
May 28, 2024 - 06:50 PM EDT / 2024.05.28 2250 UTC
Wind: from the E (080 degrees) at 5 MPH (4 KT):0
Visibility: greater than 7 mile(s):0
Temperature: 59 F (15 C)
Dew Point: 50 F (10 C)
Relative Humidity: 72%
Pressure (altimeter): 29.94 in. Hg (1014 hPa)
ob: EVLA 282250Z AUTO 08004KT CAVOK 15/10 Q1014
cycle: 23

Station Type Date Time Source
EVLA TAF 2024/05/28 21:09 UTC NOAA